Time;durP1;ratioP1;P1;durP2;ratioP2;P2;SDS_P1;SDS_P2;PMS_P1;PMS_P2;Temp;Humidity;BMP_temperature;BMP_pressure;BME280_temperature;BME280_humidity;BME280_pressure;Samples;Min_cycle;Max_cycle;Signal;HPM_P1;HPM_P2
2023/08/31 00:01:01;;;;;;;11.70;6.50;;;;;;;24.43;85.12;98897.73;104316;1253;72932;-60
2023/08/31 00:03:28;;;;;;;10.30;6.20;;;;;;;24.36;84.29;98895.84;104303;1253;60673;-59
2023/08/31 00:05:56;;;;;;;7.50;6.40;;;;;;;24.35;82.87;98893.06;104250;1268;60585;-59
2023/08/31 00:08:23;;;;;;;8.80;5.70;;;;;;;24.35;83.11;98891.14;104345;1273;73478;-61
2023/08/31 00:11:02;;;;;;;10.50;6.90;;;;;;;24.32;83.30;98894.32;104246;1269;69902;-60
2023/08/31 00:13:29;;;;;;;9.40;6.50;;;;;;;24.32;83.85;98896.16;104306;1276;72928;-60
2023/08/31 00:15:57;;;;;;;13.00;5.80;;;;;;;24.31;83.42;98890.08;104334;1272;61464;-60
2023/08/31 00:18:27;;;;;;;6.30;5.50;;;;;;;24.23;82.42;98891.85;104309;1259;60560;-59
2023/08/31 00:20:54;;;;;;;9.90;5.50;;;;;;;24.20;80.75;98886.14;104279;1258;73556;-59
2023/08/31 00:23:24;;;;;;;10.90;5.50;;;;;;;24.17;80.37;98887.52;104347;1276;69141;-59
2023/08/31 00:25:52;;;;;;;9.40;6.10;;;;;;;24.13;79.37;98882.88;104255;1254;73034;-60
2023/08/31 00:28:19;;;;;;;11.10;5.60;;;;;;;24.11;77.46;98880.73;104395;1268;61023;-59
2023/08/31 00:30:46;;;;;;;7.10;5.90;;;;;;;24.12;76.02;98871.99;104283;1259;60572;-60
2023/08/31 00:33:13;;;;;;;8.20;5.50;;;;;;;24.13;74.28;98873.14;104280;1257;74254;-59
2023/08/31 00:35:45;;;;;;;;;;;;;;;24.14;73.47;98868.00;104279;1253;70007;-59
2023/08/31 00:38:12;;;;;;;6.50;5.50;;;;;;;24.17;72.09;98871.33;104670;1254;72721;-60
2023/08/31 00:40:44;;;;;;;9.40;5.40;;;;;;;24.14;71.61;98874.85;105515;1253;60394;-61
2023/08/31 00:43:15;;;;;;;6.60;4.80;;;;;;;24.18;69.46;98878.20;106036;1253;60427;-60
2023/08/31 00:45:42;;;;;;;10.90;5.40;;;;;;;24.21;67.98;98874.97;104322;1258;74099;-60
2023/08/31 00:48:08;;;;;;;6.10;5.20;;;;;;;24.24;67.34;98872.84;104317;1276;69237;-60
2023/08/31 00:50:37;;;;;;;13.50;5.00;;;;;;;24.25;66.36;98869.31;104377;1253;73459;-59
2023/08/31 00:53:04;;;;;;;9.90;4.80;;;;;;;24.27;64.98;98866.15;104245;1275;60480;-60
2023/08/31 00:55:32;;;;;;;12.50;5.00;;;;;;;24.28;64.31;98867.34;104306;1257;60856;-60
2023/08/31 00:58:00;;;;;;;6.80;4.70;;;;;;;24.23;63.19;98870.80;104342;1276;73569;-60
2023/08/31 01:00:53;;;;;;;6.90;4.90;;;;;;;24.19;62.71;98863.31;104295;1276;68757;-60
2023/08/31 01:03:28;;;;;;;5.90;4.70;;;;;;;24.20;61.59;98859.86;104297;1253;71482;-60
2023/08/31 01:06:15;;;;;;;11.10;5.00;;;;;;;24.25;60.84;98854.21;104246;1276;60553;-60
2023/08/31 01:08:46;;;;;;;12.50;4.70;;;;;;;24.34;59.86;98851.59;104560;1265;60568;-60
2023/08/31 01:11:42;;;;;;;8.80;4.70;;;;;;;24.35;59.00;98851.56;104221;1254;74916;-60
2023/08/31 01:14:17;;;;;;;8.10;4.00;;;;;;;24.34;57.90;98850.22;104306;1259;70355;-59
2023/08/31 01:16:44;;;;;;;5.20;3.60;;;;;;;24.33;56.64;98849.11;104338;1264;72265;-60
2023/08/31 01:19:26;;;;;;;;;;;;;;;24.34;56.43;98853.57;104288;1257;60560;-60
2023/08/31 01:21:54;;;;;;;11.30;4.10;;;;;;;24.37;55.96;98851.27;104287;1264;60140;-59
2023/08/31 01:24:22;;;;;;;7.40;4.70;;;;;;;24.38;55.62;98854.73;104267;1258;75047;-61
2023/08/31 01:26:49;;;;;;;7.00;4.10;;;;;;;24.41;55.27;98859.23;104273;1259;69879;-60
2023/08/31 01:29:19;;;;;;;7.00;4.00;;;;;;;24.46;54.67;98858.01;104638;1253;71372;-60
2023/08/31 01:31:45;;;;;;;6.00;4.10;;;;;;;24.53;53.94;98859.17;104476;1256;61169;-60
2023/08/31 01:34:13;;;;;;;8.90;4.30;;;;;;;24.55;53.88;98856.13;104307;1254;60604;-59
2023/08/31 01:36:43;;;;;;;9.10;3.80;;;;;;;24.58;53.42;98851.66;104322;1276;73948;-60
2023/08/31 01:39:13;;;;;;;7.80;4.00;;;;;;;24.61;52.21;98854.38;104291;1276;69911;-60
2023/08/31 01:41:40;;;;;;;8.50;3.60;;;;;;;24.65;52.01;98853.81;104278;1276;72888;-60
2023/08/31 01:44:07;;;;;;;8.60;3.80;;;;;;;24.69;52.07;98854.00;104282;1258;60919;-59
2023/08/31 01:46:34;;;;;;;4.80;4.00;;;;;;;24.69;52.03;98852.85;104316;1253;60592;-59
2023/08/31 01:49:00;;;;;;;9.30;3.90;;;;;;;24.70;52.10;98851.88;104700;1268;74600;-60
2023/08/31 01:51:29;;;;;;;11.70;4.10;;;;;;;24.70;52.02;98850.23;104423;1275;68743;-60
2023/08/31 01:53:58;;;;;;;13.50;4.60;;;;;;;24.70;51.70;98853.31;104447;1264;73218;-61
2023/08/31 01:56:25;;;;;;;9.30;3.90;;;;;;;24.69;51.52;98854.20;104353;1255;60572;-61
2023/08/31 01:58:52;;;;;;;5.60;3.90;;;;;;;24.68;51.58;98851.20;104703;1258;60553;-60
2023/08/31 02:01:19;;;;;;;6.60;3.80;;;;;;;24.68;51.54;98861.02;104389;1255;72458;-60
2023/08/31 02:03:46;;;;;;;9.80;4.00;;;;;;;24.66;51.77;98865.89;104375;1259;69149;-59
2023/08/31 02:06:13;;;;;;;11.10;3.90;;;;;;;24.64;51.91;98864.53;104298;1275;72878;-60
2023/08/31 02:08:47;;;;;;;12.70;3.60;;;;;;;24.63;52.69;98865.88;104498;1253;60633;-60
2023/08/31 02:11:13;;;;;;;8.10;3.80;;;;;;;24.60;53.20;98869.65;104388;1261;60004;-61
2023/08/31 02:13:41;;;;;;;5.60;3.80;;;;;;;24.56;53.79;98878.54;104293;1276;72314;-60
2023/08/31 02:16:08;;;;;;;8.00;3.80;;;;;;;24.53;52.88;98880.84;104286;1259;69096;-60
2023/08/31 02:18:36;;;;;;;10.30;3.90;;;;;;;24.50;53.79;98884.19;104264;1276;72996;-60
2023/08/31 02:21:05;;;;;;;9.90;3.50;;;;;;;24.47;53.76;98885.09;104247;1253;60499;-60
2023/08/31 02:23:32;;;;;;;8.60;4.20;;;;;;;24.45;53.45;98882.38;104348;1274;59942;-60
2023/08/31 02:25:58;;;;;;;5.20;3.90;;;;;;;24.41;53.08;98883.57;104278;1259;73292;-60
2023/08/31 02:28:28;;;;;;;8.80;3.80;;;;;;;24.34;52.88;98881.41;104632;1258;68781;-60
2023/08/31 02:31:00;;;;;;;8.90;4.20;;;;;;;24.27;53.35;98888.58;104254;1275;73139;-60
2023/08/31 02:33:30;;;;;;;6.30;4.00;;;;;;;24.21;53.21;98888.06;104248;1254;60579;-61
2023/08/31 02:35:57;;;;;;;6.10;4.30;;;;;;;24.17;53.51;98886.02;104257;1264;59947;-60
2023/08/31 02:38:27;;;;;;;9.00;4.10;;;;;;;24.13;53.67;98886.06;104336;1259;72504;-60
2023/08/31 02:40:54;;;;;;;5.30;3.80;;;;;;;24.11;54.01;98886.41;104379;1257;69786;-60
2023/08/31 02:43:20;;;;;;;6.40;3.70;;;;;;;24.05;53.96;98884.36;104352;1272;72313;-60
2023/08/31 02:45:48;;;;;;;11.10;4.00;;;;;;;24.00;54.29;98879.38;104275;1257;60570;-60
2023/08/31 02:48:15;;;;;;;4.80;3.90;;;;;;;23.97;54.25;98884.98;104596;1264;61067;-61
2023/08/31 02:50:42;;;;;;;14.00;4.80;;;;;;;23.89;55.65;98892.20;104288;1259;73497;-60
2023/08/31 02:53:09;;;;;;;6.50;3.60;;;;;;;23.86;55.30;98897.81;104388;1269;70043;-60
2023/08/31 02:55:37;;;;;;;10.70;4.40;;;;;;;23.83;55.63;98892.95;104340;1257;72852;-59
2023/08/31 02:58:03;;;;;;;4.90;4.00;;;;;;;23.78;55.77;98889.86;104442;1258;60980;-61
2023/08/31 03:00:33;;;;;;;;;;;;;;;23.75;55.78;98888.99;104318;1260;60463;-60
2023/08/31 03:03:00;;;;;;;10.10;3.70;;;;;;;23.70;55.56;98890.00;104249;1256;74135;-60
2023/08/31 03:05:28;;;;;;;5.60;3.90;;;;;;;23.67;56.24;98892.86;104335;1275;69348;-59
2023/08/31 03:07:56;;;;;;;9.90;4.80;;;;;;;23.63;55.64;98897.89;104268;1275;72836;-60
2023/08/31 03:10:26;;;;;;;6.30;4.20;;;;;;;23.62;55.66;98895.52;104302;1254;60544;-60
2023/08/31 03:12:53;;;;;;;9.40;4.10;;;;;;;23.66;56.59;98896.21;104241;1254;60499;-60
2023/08/31 03:15:20;;;;;;;9.00;4.00;;;;;;;23.68;57.18;98890.71;104287;1254;72810;-60
2023/08/31 03:17:46;;;;;;;8.30;4.20;;;;;;;23.70;58.30;98892.27;104302;1276;69517;-59
2023/08/31 03:20:14;;;;;;;7.10;4.20;;;;;;;23.71;58.78;98891.83;104277;1253;73488;-60
2023/08/31 03:22:43;;;;;;;11.20;4.80;;;;;;;23.72;58.98;98888.70;104279;1260;60557;-60
2023/08/31 03:25:11;;;;;;;6.20;3.90;;;;;;;23.80;57.08;98883.30;104271;1253;61178;-62
2023/08/31 03:27:38;;;;;;;5.60;4.10;;;;;;;23.81;58.05;98884.90;104285;1258;73477;-61
2023/08/31 03:30:06;;;;;;;6.20;4.30;;;;;;;23.81;59.10;98884.33;104342;1276;69402;-59
2023/08/31 03:32:33;;;;;;;6.00;3.90;;;;;;;23.81;60.22;98881.34;104306;1256;72699;-59
2023/08/31 03:35:03;;;;;;;8.40;4.20;;;;;;;23.86;60.62;98884.53;104352;1259;61126;-61
2023/08/31 03:37:30;;;;;;;9.00;3.90;;;;;;;23.87;58.26;98888.75;104619;1255;60462;-59
2023/08/31 03:39:57;;;;;;;4.60;4.10;;;;;;;23.82;58.50;98889.39;104244;1257;73105;-59
2023/08/31 03:42:24;;;;;;;5.80;3.50;;;;;;;23.82;58.83;98892.73;104470;1251;69269;-59
2023/08/31 03:44:51;;;;;;;6.80;3.90;;;;;;;23.80;59.56;98889.10;104358;1256;73123;-59
2023/08/31 03:47:18;;;;;;;6.70;4.00;;;;;;;23.77;58.19;98886.02;104330;1256;60564;-59
2023/08/31 03:49:45;;;;;;;19.30;4.40;;;;;;;23.73;59.61;98892.70;104396;1275;60553;-59
2023/08/31 03:52:12;;;;;;;6.00;4.00;;;;;;;23.73;58.16;98895.27;104376;1261;74001;-60
2023/08/31 03:54:40;;;;;;;6.30;4.20;;;;;;;23.73;58.76;98894.13;104730;1259;69865;-58
2023/08/31 03:57:07;;;;;;;12.30;3.90;;;;;;;23.68;58.21;98893.02;104352;1258;73054;-59
2023/08/31 03:59:33;;;;;;;12.20;3.70;;;;;;;23.67;59.93;98894.13;104552;1275;60566;-59
2023/08/31 04:02:01;;;;;;;6.20;4.20;;;;;;;23.66;61.27;98890.08;104373;1275;60553;-59
2023/08/31 04:04:29;;;;;;;8.30;4.10;;;;;;;23.70;62.03;98892.19;104340;1261;74244;-59
2023/08/31 04:06:57;;;;;;;6.40;4.00;;;;;;;23.67;62.25;98889.67;104609;1258;69267;-60
2023/08/31 04:09:24;;;;;;;5.40;4.10;;;;;;;23.62;62.59;98888.44;104292;1257;72839;-60
2023/08/31 04:11:54;;;;;;;5.00;4.30;;;;;;;23.58;63.01;98891.71;104444;1253;60567;-59
2023/08/31 04:14:21;;;;;;;6.30;4.10;;;;;;;23.54;63.57;98893.02;104370;1257;60528;-60
2023/08/31 04:16:50;;;;;;;4.30;3.40;;;;;;;23.51;64.81;98888.88;104244;1256;74112;-60
2023/08/31 04:19:17;;;;;;;5.50;4.30;;;;;;;23.48;63.48;98893.42;104597;1268;70114;-59
2023/08/31 04:21:44;;;;;;;6.00;3.60;;;;;;;23.43;62.47;98893.26;104480;1250;73461;-61
2023/08/31 04:24:10;;;;;;;13.40;3.90;;;;;;;23.40;63.02;98894.48;104511;1256;60475;-59
2023/08/31 04:26:37;;;;;;;11.30;4.40;;;;;;;23.39;61.64;98896.30;104666;1252;60517;-61
2023/08/31 04:29:07;;;;;;;9.40;3.70;;;;;;;23.33;61.17;98898.48;104701;1260;74327;-61
2023/08/31 04:31:34;;;;;;;5.70;3.90;;;;;;;23.22;60.92;98903.49;104534;1262;69806;-63
2023/08/31 04:34:02;;;;;;;7.70;4.00;;;;;;;23.20;63.43;98907.73;104662;1255;72408;-61
2023/08/31 04:36:29;;;;;;;10.00;5.00;;;;;;;23.24;63.25;98911.27;104494;1273;60580;-61
2023/08/31 04:38:55;;;;;;;5.00;4.00;;;;;;;23.25;62.52;98909.87;104668;1256;60890;-59
2023/08/31 04:41:23;;;;;;;;;;;;;;;23.27;62.85;98911.84;104742;1258;73417;-58
2023/08/31 04:43:50;;;;;;;5.80;3.50;;;;;;;23.31;64.20;98916.90;104685;1268;69688;-59
2023/08/31 04:46:17;;;;;;;12.30;4.50;;;;;;;23.32;63.25;98914.46;104788;1255;73123;-59
2023/08/31 04:48:46;;;;;;;11.20;4.30;;;;;;;23.35;64.13;98915.61;104691;1254;60533;-62
2023/08/31 04:51:29;;;;;;;12.00;5.20;;;;;;;23.39;65.82;98918.45;106112;1253;60457;-59
2023/08/31 04:53:56;;;;;;;11.30;4.10;;;;;;;23.48;66.25;98918.70;104779;1254;73449;-61
2023/08/31 04:56:23;;;;;;;7.50;4.30;;;;;;;23.58;64.94;98914.80;104575;1254;70142;-59
2023/08/31 04:58:54;;;;;;;6.40;3.60;;;;;;;23.65;64.67;98922.61;104548;1266;72980;-61
2023/08/31 05:01:24;;;;;;;9.70;4.30;;;;;;;23.77;63.14;98923.60;104439;1255;60562;-61
2023/08/31 05:03:51;;;;;;;;;;;;;;;23.86;62.46;98921.73;104701;1257;60457;-62
2023/08/31 05:06:18;;;;;;;;;;;;;;;23.85;61.04;98920.08;104970;1253;74074;-60
2023/08/31 05:08:45;;;;;;;;;;;;;;;23.88;61.50;98916.74;104637;1273;70464;-60
2023/08/31 05:11:14;;;;;;;;;;;;;;;23.90;61.34;98921.30;104495;1274;72892;-61
2023/08/31 05:13:42;;;;;;;;;;;;;;;23.96;60.54;98929.29;104474;1269;60556;-58
2023/08/31 05:16:09;;;;;;;;;;;;;;;23.98;60.51;98925.39;104599;1251;60973;-58
2023/08/31 05:18:38;;;;;;;;;;;;;;;23.99;61.27;98923.54;104620;1263;73582;-60
2023/08/31 05:21:05;;;;;;;;;;;;;;;24.00;61.70;98929.39;104625;1259;69766;-60
2023/08/31 05:23:31;;;;;;;;;;;;;;;23.98;61.93;98936.77;104497;1257;72039;-60
2023/08/31 05:25:58;;;;;;;;;;;;;;;24.00;62.68;98945.12;104580;1262;60460;-60
2023/08/31 05:28:25;;;;;;;;;;;;;;;24.08;63.07;98952.83;104567;1273;60559;-60
2023/08/31 05:30:52;;;;;;;;;;;;;;;24.08;62.50;98950.89;104357;1257;74239;-60
2023/08/31 05:33:19;;;;;;;;;;;;;;;24.10;63.48;98948.27;104501;1255;69230;-60
2023/08/31 05:35:48;;;;;;;;;;;;;;;24.16;63.79;98955.18;104863;1255;72282;-61
2023/08/31 05:38:17;;;;;;;;;;;;;;;24.17;62.51;98953.13;104215;1274;60565;-59
2023/08/31 05:40:46;;;;;;;;;;;;;;;24.21;61.13;98956.00;104542;1271;59871;-59
2023/08/31 05:43:13;;;;;;;;;;;;;;;24.33;61.11;98959.62;104413;1258;72872;-59
2023/08/31 05:45:40;;;;;;;;;;;;;;;24.38;60.79;98962.53;104780;1253;69912;-59
2023/08/31 05:48:07;;;;;;;;;;;;;;;24.40;59.51;98960.44;104330;1255;71345;-60
2023/08/31 05:50:34;;;;;;;;;;;;;;;24.52;59.11;98966.45;105930;1249;60623;-60
2023/08/31 05:53:00;;;;;;;;;;;;;;;24.59;59.62;98965.45;106875;1253;60569;-60
2023/08/31 05:55:29;;;;;;;;;;;;;;;24.66;59.21;98964.63;104546;1269;74214;-59
2023/08/31 05:57:56;;;;;;;;;;;;;;;24.75;58.94;98963.83;104670;1260;69672;-59
2023/08/31 06:00:23;;;;;;;;;;;;;;;24.86;59.22;98964.42;104258;1273;72900;-60
2023/08/31 06:02:49;;;;;;;;;;;;;;;25.01;58.64;98965.57;104261;1254;60483;-59
2023/08/31 06:05:16;;;;;;;;;;;;;;;25.17;57.94;98960.66;104648;1261;60985;-61
2023/08/31 06:07:43;;;;;;;;;;;;;;;25.30;58.77;98960.98;104319;1259;73819;-59
2023/08/31 06:10:11;;;;;;;;;;;;;;;25.37;58.79;98964.01;104636;1270;70004;-59
2023/08/31 06:12:37;;;;;;;;;;;;;;;25.44;57.79;98966.05;104424;1254;72739;-59
2023/08/31 06:15:07;;;;;;;;;;;;;;;25.55;58.05;98965.09;104509;1254;60562;-59
2023/08/31 06:17:35;;;;;;;;;;;;;;;25.65;57.60;98964.12;104371;1273;60560;-58
2023/08/31 06:20:05;;;;;;;;;;;;;;;25.77;57.61;98964.38;104403;1254;73944;-58
2023/08/31 06:22:35;;;;;;;;;;;;;;;25.95;56.93;98963.76;104407;1273;69554;-58
2023/08/31 06:25:02;;;;;;;;;;;;;;;26.05;57.34;98964.14;104320;1274;73368;-57
2023/08/31 06:27:29;;;;;;;;;;;;;;;26.14;56.12;98968.61;104315;1255;60569;-57
2023/08/31 06:29:56;;;;;;;;;;;;;;;26.20;55.73;98969.36;104291;1271;60468;-57
2023/08/31 06:32:23;;;;;;;;;;;;;;;26.23;55.20;98974.55;104457;1255;74499;-59
2023/08/31 06:34:50;;;;;;;;;;;;;;;26.29;54.05;98969.09;104485;1254;69189;-59
2023/08/31 06:37:16;;;;;;;;;;;;;;;26.31;55.07;98969.52;104844;1255;72880;-59
2023/08/31 06:39:43;;;;;;;;;;;;;;;26.33;54.88;98976.67;104293;1255;60571;-61
2023/08/31 06:42:10;;;;;;;;;;;;;;;26.33;55.38;98977.77;104770;1266;60681;-58
2023/08/31 06:44:37;;;;;;;;;;;;;;;26.39;55.27;98979.85;104421;1256;73408;-58
2023/08/31 06:47:04;;;;;;;;;;;;;;;26.43;54.69;98981.48;104391;1256;70116;-58
2023/08/31 06:49:32;;;;;;;;;;;;;;;26.45;54.07;98978.34;104556;1261;71316;-59
2023/08/31 06:52:00;;;;;;;;;;;;;;;26.51;55.06;98980.65;104379;1273;60633;-59
2023/08/31 06:54:27;;;;;;;;;;;;;;;26.60;54.48;98981.68;104588;1255;60470;-60
2023/08/31 06:56:53;;;;;;;;;;;;;;;26.70;54.87;98984.58;104290;1273;74254;-59
2023/08/31 06:59:20;;;;;;;;;;;;;;;26.77;54.70;98977.11;104443;1255;69308;-59
2023/08/31 07:01:47;;;;;;;;;;;;;;;26.76;55.09;98974.95;104265;1264;72332;-59
2023/08/31 07:04:16;;;;;;;;;;;;;;;26.79;55.60;98973.21;104324;1267;59967;-61
2023/08/31 07:06:43;;;;;;;;;;;;;;;26.86;54.60;98975.58;104376;1272;60561;-60
2023/08/31 07:09:10;;;;;;;;;;;;;;;26.91;54.00;98976.27;104379;1253;74285;-59
2023/08/31 07:11:37;;;;;;;;;;;;;;;27.03;53.37;98979.77;104532;1256;70312;-60
2023/08/31 07:14:03;;;;;;;;;;;;;;;27.07;54.13;98980.08;104421;1255;73369;-59
2023/08/31 07:16:30;;;;;;;;;;;;;;;27.15;53.97;98982.09;104433;1257;60760;-61
2023/08/31 07:18:58;;;;;;;;;;;;;;;27.21;53.89;98984.20;104437;1270;60540;-60
2023/08/31 07:21:26;;;;;;;;;;;;;;;27.27;54.22;98984.17;104534;1255;73355;-62
2023/08/31 07:23:53;;;;;;;;;;;;;;;27.36;54.27;98991.55;104660;1263;69663;-59
2023/08/31 07:26:19;;;;;;;;;;;;;;;27.36;53.49;98992.55;104422;1255;72927;-58
2023/08/31 07:28:49;;;;;;;;;;;;;;;27.27;54.31;98996.45;104712;1263;60609;-59
2023/08/31 07:31:16;;;;;;;;;;;;;;;26.79;56.46;99003.15;104928;1251;60557;-60
2023/08/31 07:33:43;;;;;;;;;;;;;;;26.85;56.16;99005.69;104895;1254;73348;-59
2023/08/31 07:36:10;;;;;;;;;;;;;;;26.95;55.26;98998.65;104458;1257;68187;-59
2023/08/31 07:38:37;;;;;;;;;;;;;;;27.01;55.18;98997.30;104773;1253;72563;-59
2023/08/31 07:41:04;;;;;;;;;;;;;;;27.02;55.69;98996.77;104880;1255;60695;-60
2023/08/31 07:46:01;;;;;;;8.00;3.90;;;;;;;26.92;58.11;98991.21;101786;1292;601523;-60
2023/08/31 07:48:31;;;;;;;;;;;;;;;27.32;56.69;98991.86;103615;1267;60821;-59
2023/08/31 07:50:59;;;;;;;7.30;3.20;;;;;;;27.43;55.80;98989.08;104373;1267;59635;-59
2023/08/31 07:53:27;;;;;;;6.30;3.20;;;;;;;27.46;55.46;98990.70;104503;1267;71795;-59
2023/08/31 07:55:59;;;;;;;8.70;3.30;;;;;;;27.50;55.63;98990.00;103745;1267;69236;-58
2023/08/31 07:58:26;;;;;;;5.60;3.60;;;;;;;27.58;55.78;98993.13;103424;1271;73375;-58
2023/08/31 08:00:57;;;;;;;8.70;3.40;;;;;;;27.62;56.50;98992.88;104054;1276;60492;-58
2023/08/31 08:03:25;;;;;;;6.30;3.30;;;;;;;27.74;55.69;98995.27;103913;1270;59780;-59
2023/08/31 08:05:53;;;;;;;10.20;3.60;;;;;;;27.89;55.42;98996.15;103730;1269;71987;-58
2023/08/31 08:08:21;;;;;;;7.60;3.60;;;;;;;28.01;54.75;98990.84;103861;1280;69235;-59
2023/08/31 08:10:52;;;;;;;7.00;3.50;;;;;;;28.20;53.43;98986.61;103945;1264;72602;-59
2023/08/31 08:13:20;;;;;;;6.00;3.30;;;;;;;28.32;54.13;98978.10;104156;1264;60805;-59
2023/08/31 08:15:48;;;;;;;;;;;;;;;28.44;53.82;98974.53;104159;1265;60715;-58
2023/08/31 08:18:17;;;;;;;8.90;2.90;;;;;;;28.51;53.77;98976.34;103890;1266;72781;-58
2023/08/31 08:20:49;;;;;;;;;;;;;;;28.49;53.72;98974.63;104147;1264;69048;-62
2023/08/31 08:23:16;;;;;;;6.50;3.50;;;;;;;28.58;52.89;98968.84;104188;1262;71202;-58
2023/08/31 08:25:44;;;;;;;;;;;;;;;28.63;53.65;98968.45;103975;1257;59853;-59
2023/08/31 08:28:12;;;;;;;7.00;3.20;;;;;;;28.70;53.38;98965.63;104062;1261;59708;-59
2023/08/31 08:30:39;;;;;;;7.20;3.20;;;;;;;28.77;53.73;98965.70;104147;1257;72866;-59
2023/08/31 08:33:12;;;;;;;8.50;3.10;;;;;;;28.90;53.47;98967.17;103917;1281;69648;-56
2023/08/31 08:35:40;;;;;;;5.60;3.40;;;;;;;28.98;53.08;98971.02;104021;1278;72240;-58
2023/08/31 08:38:08;;;;;;;;;;;;;;;29.11;51.74;98971.15;104537;1257;59953;-59
2023/08/31 08:40:36;;;;;;;13.60;3.10;;;;;;;29.25;50.72;98968.06;104423;1260;59819;-59
2023/08/31 08:43:06;;;;;;;7.20;2.80;;;;;;;29.25;50.75;98966.52;104106;1256;73009;-59
2023/08/31 08:45:38;;;;;;;6.80;3.20;;;;;;;29.34;49.67;98967.42;104282;1257;69598;-60
2023/08/31 08:48:07;;;;;;;9.10;3.30;;;;;;;29.44;49.97;98967.48;105513;1257;72412;-58
2023/08/31 08:50:35;;;;;;;11.20;2.80;;;;;;;29.55;49.85;98962.48;105039;1257;59909;-57
2023/08/31 08:53:04;;;;;;;6.60;2.90;;;;;;;29.60;48.79;98962.98;104196;1257;59763;-57
2023/08/31 08:55:32;;;;;;;12.00;3.50;;;;;;;29.61;49.89;98961.38;104236;1257;73795;-59
2023/08/31 08:58:00;;;;;;;11.70;3.80;;;;;;;29.70;49.68;98964.56;104185;1262;68369;-56
2023/08/31 09:00:30;;;;;;;;;;;;;;;29.82;49.30;98963.92;103838;1280;71474;-59
2023/08/31 09:02:58;;;;;;;6.20;2.90;;;;;;;29.96;48.88;98964.59;104195;1261;60705;-57
2023/08/31 09:05:26;;;;;;;11.10;3.10;;;;;;;29.99;48.94;98964.52;104033;1259;59742;-58
2023/08/31 09:08:00;;;;;;;6.90;3.30;;;;;;;30.02;47.84;98963.59;103979;1258;72361;-58
2023/08/31 09:10:39;;;;;;;8.60;3.20;;;;;;;30.06;48.20;98967.23;103846;1265;69768;-58
2023/08/31 09:13:10;;;;;;;8.60;3.50;;;;;;;30.14;47.79;98962.21;104259;1258;72391;-58
2023/08/31 09:15:41;;;;;;;8.80;3.10;;;;;;;30.24;47.67;98963.30;104357;1257;59846;-58
2023/08/31 09:18:34;;;;;;;13.00;3.10;;;;;;;30.33;46.70;98963.66;104535;1257;59798;-58
2023/08/31 09:21:02;;;;;;;10.60;3.20;;;;;;;30.25;47.55;98965.61;104067;1260;72995;-58
2023/08/31 09:23:30;;;;;;;14.60;3.40;;;;;;;30.35;47.64;98970.58;104172;1260;68311;-58
2023/08/31 09:25:57;;;;;;;;;;;;;;;30.45;47.61;98970.65;104023;1263;72933;-58
2023/08/31 09:28:27;;;;;;;10.50;3.10;;;;;;;30.51;47.09;98968.14;104343;1260;59846;-57
2023/08/31 09:31:06;;;;;;;4.90;3.20;;;;;;;30.47;47.22;98967.89;104075;1261;59900;-59
2023/08/31 09:33:36;;;;;;;7.20;3.20;;;;;;;30.51;46.99;98970.44;104411;1258;72940;-58
2023/08/31 09:36:06;;;;;;;4.10;3.00;;;;;;;30.53;47.42;98972.61;103937;1257;69618;-58
2023/08/31 09:38:44;;;;;;;5.80;2.90;;;;;;;30.61;46.62;98965.58;104338;1257;72740;-58
2023/08/31 09:41:12;;;;;;;5.60;3.10;;;;;;;30.63;47.32;98965.20;104101;1258;60772;-60
2023/08/31 09:43:40;;;;;;;6.10;3.00;;;;;;;30.66;47.35;98968.89;104418;1257;60322;-59
2023/08/31 09:46:10;;;;;;;8.50;3.80;;;;;;;30.61;46.99;98974.41;104767;1273;73286;-57
2023/08/31 09:48:38;;;;;;;8.90;3.30;;;;;;;30.62;46.58;98979.64;104355;1260;69017;-57
2023/08/31 09:51:07;;;;;;;9.60;3.30;;;;;;;30.66;46.68;98979.63;104098;1259;72384;-59
2023/08/31 09:53:36;;;;;;;6.80;2.70;;;;;;;30.74;46.54;98983.11;107809;1256;59912;-59
2023/08/31 09:56:07;;;;;;;7.00;2.90;;;;;;;30.80;46.00;98980.67;107833;1255;59907;-57
2023/08/31 09:58:37;;;;;;;6.50;3.30;;;;;;;30.86;45.95;98984.19;105572;1257;72879;-57
2023/08/31 10:01:05;;;;;;;8.20;3.40;;;;;;;30.91;46.11;98981.01;104621;1257;69083;-57
2023/08/31 10:03:49;;;;;;;6.30;3.10;;;;;;;30.96;45.50;98981.91;104509;1263;74248;-58
2023/08/31 10:06:17;;;;;;;9.80;3.40;;;;;;;30.98;45.17;98983.20;104072;1258;60297;-59
2023/08/31 10:08:45;;;;;;;11.60;3.40;;;;;;;31.04;46.07;98986.60;104437;1259;60744;-58
2023/08/31 10:11:14;;;;;;;;;;;;;;;31.10;46.06;98985.50;104280;1260;72906;-58
2023/08/31 10:13:44;;;;;;;7.40;3.70;;;;;;;31.16;45.77;98983.00;104191;1271;68490;-57
2023/08/31 10:16:12;;;;;;;;;;;;;;;31.13;45.69;98977.33;104048;1261;72395;-58
2023/08/31 10:18:40;;;;;;;8.50;3.00;;;;;;;31.23;44.32;98979.22;104017;1261;60358;-58
2023/08/31 10:21:07;;;;;;;8.80;3.40;;;;;;;31.27;45.31;98981.88;104216;1256;59724;-58
2023/08/31 10:23:35;;;;;;;7.00;3.20;;;;;;;31.25;45.13;98981.80;104049;1273;73270;-58
2023/08/31 10:26:06;;;;;;;6.30;3.20;;;;;;;31.22;45.38;98976.91;104338;1257;69637;-58
2023/08/31 10:28:39;;;;;;;7.30;2.90;;;;;;;31.15;44.49;98979.08;104317;1262;72330;-58
2023/08/31 10:31:08;;;;;;;10.00;3.10;;;;;;;31.15;44.41;98983.59;104292;1256;60187;-60
2023/08/31 10:33:45;;;;;;;9.40;3.30;;;;;;;31.18;44.13;98982.58;104422;1261;59885;-57
2023/08/31 10:36:19;;;;;;;10.50;3.20;;;;;;;31.13;44.34;98983.36;104232;1261;73972;-57
2023/08/31 10:38:59;;;;;;;8.10;3.20;;;;;;;31.04;44.54;98983.14;104045;1271;68554;-57
2023/08/31 10:41:35;;;;;;;6.40;2.50;;;;;;;31.04;43.88;98979.63;104186;1278;73432;-58
2023/08/31 10:44:35;;;;;;;6.50;3.00;;;;;;;31.05;43.87;98980.80;104353;1260;59917;-57
2023/08/31 10:47:03;;;;;;;10.50;2.60;;;;;;;31.04;43.23;98978.25;104343;1272;60467;-57
2023/08/31 10:49:34;;;;;;;7.40;2.70;;;;;;;31.04;43.86;98978.17;104314;1258;72949;-57
2023/08/31 10:52:18;;;;;;;6.70;2.70;;;;;;;31.08;43.53;98976.80;104193;1257;68867;-59
2023/08/31 10:54:51;;;;;;;6.10;2.60;;;;;;;31.04;43.99;98976.46;104273;1257;72365;-58
2023/08/31 10:57:19;;;;;;;6.90;2.50;;;;;;;31.08;43.68;98976.40;104696;1258;60022;-57
2023/08/31 10:59:50;;;;;;;;;;;;;;;31.12;43.66;98971.34;104446;1257;59854;-57
2023/08/31 11:02:43;;;;;;;6.20;2.80;;;;;;;31.15;43.90;98971.23;104263;1267;72889;-57
2023/08/31 11:05:12;;;;;;;7.90;2.90;;;;;;;31.19;43.79;98974.55;104312;1260;69893;-58
2023/08/31 11:07:47;;;;;;;5.30;2.60;;;;;;;31.21;43.49;98972.16;104318;1269;72295;-58
2023/08/31 11:10:17;;;;;;;10.70;3.90;;;;;;;31.13;43.37;98976.84;104584;1256;59869;-57
2023/08/31 11:12:49;;;;;;;13.00;5.20;;;;;;;31.17;43.43;98972.70;104774;1256;59970;-58
2023/08/31 11:15:18;;;;;;;16.60;4.50;;;;;;;31.19;44.16;98969.71;104008;1278;72808;-58
2023/08/31 11:17:46;;;;;;;10.20;4.30;;;;;;;31.18;43.37;98962.87;104124;1270;69082;-58
2023/08/31 11:20:18;;;;;;;9.20;3.30;;;;;;;31.17;42.78;98960.66;104569;1257;72414;-58
2023/08/31 11:22:49;;;;;;;12.80;3.40;;;;;;;31.11;41.94;98961.05;104150;1270;60386;-59
2023/08/31 11:25:17;;;;;;;7.20;2.80;;;;;;;31.04;42.34;98962.63;104150;1258;59704;-57
2023/08/31 11:27:59;;;;;;;8.00;3.30;;;;;;;31.03;42.47;98961.89;104271;1257;73648;-57
2023/08/31 11:30:31;;;;;;;4.90;2.90;;;;;;;31.06;42.82;98963.08;104482;1261;69989;-58
2023/08/31 11:33:05;;;;;;;7.70;2.70;;;;;;;31.13;43.55;98961.09;104392;1264;73892;-57
2023/08/31 11:35:35;;;;;;;10.20;3.30;;;;;;;31.17;44.47;98961.37;104453;1256;59774;-57
2023/08/31 11:38:04;;;;;;;11.70;3.30;;;;;;;31.14;43.88;98967.90;104159;1259;60762;-57
2023/08/31 11:40:31;;;;;;;11.20;3.80;;;;;;;31.16;43.06;98966.64;104655;1260;74168;-59
2023/08/31 11:43:03;;;;;;;10.30;3.10;;;;;;;31.14;43.55;98968.31;104184;1261;69552;-58
2023/08/31 11:45:31;;;;;;;9.50;3.10;;;;;;;31.12;42.99;98967.86;104565;1261;72563;-58
2023/08/31 11:47:58;;;;;;;;;;;;;;;31.13;43.24;98961.92;104402;1256;59759;-58
2023/08/31 11:50:26;;;;;;;10.70;3.10;;;;;;;31.14;43.46;98960.73;104287;1257;59765;-59
2023/08/31 11:52:56;;;;;;;7.70;3.50;;;;;;;31.06;42.77;98962.70;104405;1261;73351;-58